Time;durP1;ratioP1;P1;durP2;ratioP2;P2;SDS_P1;SDS_P2;PMS_P1;PMS_P2;Temp;Humidity;BMP_temperature;BMP_pressure;BME280_temperature;BME280_humidity;BME280_pressure;Samples;Min_cycle;Max_cycle;Signal;HPM_P1;HPM_P2
2021/12/02 00:01:46;;;;;;;;;;;3.80;99.90;;;;;;4938292;28;19922;-90
2021/12/02 00:04:21;;;;;;;;;;;3.80;99.90;;;;;;4934332;29;19922;-89
2021/12/02 00:06:59;;;;;;;;;;;3.70;99.90;;;;;;4933667;29;19961;-88
2021/12/02 00:09:25;;;;;;;;;;;3.80;99.90;;;;;;4939490;29;19922;-88
2021/12/02 00:11:51;;;;;;;;;;;3.50;99.90;;;;;;4947333;28;19974;-88
2021/12/02 00:14:42;;;;;;;;;;;3.70;99.90;;;;;;4940853;29;20438;-88
2021/12/02 00:17:38;;;;;;;;;;;4.10;99.90;;;;;;4930646;29;20010;-90
2021/12/02 00:23:12;;;;;;;;;;;3.50;99.90;;;;;;4935944;29;19922;-87
2021/12/02 00:25:38;;;;;;;;;;;3.50;99.90;;;;;;4932423;28;19930;-88
2021/12/02 00:28:09;;;;;;;;;;;3.30;99.90;;;;;;4928721;29;20000;-88
2021/12/02 00:30:44;;;;;;;;;;;2.10;99.90;;;;;;4933123;28;20026;-87
2021/12/02 00:33:12;;;;;;;;;;;3.40;99.90;;;;;;4936779;29;19927;-87
2021/12/02 00:35:38;;;;;;;;;;;3.40;99.90;;;;;;4926570;29;19923;-86
2021/12/02 00:38:04;;;;;;;;;;;5.20;99.90;;;;;;4932032;29;19950;-87
2021/12/02 00:40:32;;;;;;;;;;;3.40;99.90;;;;;;4934440;29;19922;-88
2021/12/02 00:43:07;;;;;;;;;;;3.20;99.90;;;;;;4949615;28;19938;-87
2021/12/02 00:45:53;;;;;;;;;;;2.30;99.90;;;;;;4941674;28;19969;-87
2021/12/02 00:48:24;;;;;;;;;;;3.30;99.90;;;;;;4938518;29;20512;-86
2021/12/02 00:50:50;;;;;;;;;;;4.30;99.90;;;;;;4937679;28;19927;-87
2021/12/02 00:53:22;;;;;;;;;;;4.20;99.90;;;;;;4933570;28;19934;-86
2021/12/02 00:55:49;;;;;;;;;;;0.60;99.90;;;;;;4932854;29;20195;-88
2021/12/02 00:58:23;;;;;;;;;;;3.30;99.90;;;;;;4935112;29;19937;-87
2021/12/02 01:00:51;;;;;;;;;;;3.30;99.90;;;;;;4928034;29;19930;-86
2021/12/02 01:03:18;;;;;;;;;;;3.30;99.90;;;;;;4935072;29;19922;-87
2021/12/02 01:05:51;;;;;;;;;;;3.20;99.90;;;;;;4935826;28;19930;-87
2021/12/02 01:08:17;;;;;;;;;;;3.30;99.90;;;;;;4927535;29;19987;-88
2021/12/02 01:10:46;;;;;;;;;;;3.40;99.90;;;;;;4930670;28;19962;-87
2021/12/02 01:13:13;;;;;;;;;;;3.30;99.90;;;;;;4926011;29;20376;-88
2021/12/02 01:15:39;;;;;;;;;;;3.40;99.90;;;;;;4933312;28;19998;-88
2021/12/02 01:18:14;;;;;;;;;;;3.40;99.90;;;;;;4927876;29;19954;-87
2021/12/02 01:20:44;;;;;;;;;;;3.40;99.90;;;;;;4933167;29;19953;-85
2021/12/02 01:23:09;;;;;;;;;;;3.70;99.90;;;;;;4919824;29;19944;-86
2021/12/02 01:25:54;;;;;;;;;;;3.40;99.90;;;;;;4927621;29;19946;-89
2021/12/02 01:28:23;;;;;;;;;;;2.60;99.90;;;;;;4930471;29;19930;-86
2021/12/02 01:30:50;;;;;;;;;;;4.30;99.90;;;;;;4940663;28;19922;-83
2021/12/02 01:33:18;;;;;;;;;;;3.00;99.90;;;;;;4935515;28;19927;-86
2021/12/02 01:35:51;;;;;;;;;;;3.50;99.90;;;;;;4933823;28;20062;-85
2021/12/02 01:38:17;;;;;;;;;;;3.50;99.90;;;;;;4921436;29;20088;-86
2021/12/02 01:40:48;;;;;;;;;;;3.50;99.90;;;;;;4931292;29;19990;-88
2021/12/02 01:43:16;;;;;;;;;;;1.70;99.90;;;;;;4936478;28;19926;-86
2021/12/02 01:45:42;;;;;;;;;;;3.60;99.90;;;;;;4931364;28;20025;-88
2021/12/02 01:48:09;;;;;;;;;;;4.70;99.90;;;;;;4937560;28;19937;-88
2021/12/02 01:50:50;;;;;;;;;;;4.80;99.90;;;;;;4940868;28;19953;-87
2021/12/02 01:53:22;;;;;;;;;;;4.90;99.90;;;;;;4937425;28;20449;-87
2021/12/02 01:55:51;;;;;;;;;;;3.50;99.90;;;;;;4939657;28;19930;-87
2021/12/02 01:58:17;;;;;;;;;;;3.50;99.90;;;;;;4932584;28;19932;-86
2021/12/02 02:00:46;;;;;;;;;;;3.50;99.90;;;;;;4953658;28;19993;-87
2021/12/02 02:03:13;;;;;;;;;;;3.50;99.90;;;;;;4936366;28;19937;-88
2021/12/02 02:05:39;;;;;;;;;;;3.50;99.90;;;;;;4937460;28;19978;-87
2021/12/02 02:08:27;;;;;;;;;;;2.80;99.90;;;;;;4938846;28;20250;-87
2021/12/02 02:10:58;;;;;;;;;;;3.40;99.90;;;;;;4935794;28;19995;-86
2021/12/02 02:13:24;;;;;;;;;;;3.40;99.90;;;;;;4937580;28;20516;-86
2021/12/02 02:15:52;;;;;;;;;;;3.90;99.90;;;;;;4937499;28;20033;-86
2021/12/02 02:18:21;;;;;;;;;;;5.20;99.90;;;;;;4952326;28;19932;-86
2021/12/02 02:21:18;;;;;;;;;;;3.40;99.90;;;;;;4959147;28;19964;-86
2021/12/02 02:23:58;;;;;;;;;;;3.30;99.90;;;;;;4942499;28;19918;-86
2021/12/02 02:26:30;;;;;;;;;;;2.70;99.90;;;;;;4947353;28;19954;-86
2021/12/02 02:28:57;;;;;;;;;;;2.70;99.90;;;;;;4943098;28;19918;-88
2021/12/02 02:31:23;;;;;;;;;;;3.30;99.90;;;;;;4944822;28;20033;-85
2021/12/02 02:33:50;;;;;;;;;;;3.30;99.90;;;;;;4951074;28;19965;-86
2021/12/02 02:36:17;;;;;;;;;;;3.30;99.90;;;;;;4945355;29;20771;-86
2021/12/02 02:38:45;;;;;;;;;;;3.30;99.90;;;;;;4936179;28;20224;-86
2021/12/02 02:41:12;;;;;;;;;;;3.30;99.90;;;;;;4936316;28;20370;-86
2021/12/02 02:43:37;;;;;;;;;;;3.30;99.90;;;;;;4942118;28;19977;-86
2021/12/02 02:46:03;;;;;;;;;;;3.30;99.90;;;;;;4942014;28;19926;-87
2021/12/02 02:48:30;;;;;;;;;;;3.30;99.90;;;;;;4938949;28;19923;-87
2021/12/02 02:50:55;;;;;;;;;;;3.40;99.90;;;;;;4941915;28;19931;-87
2021/12/02 02:53:22;;;;;;;;;;;3.40;99.90;;;;;;4957211;28;19922;-89
2021/12/02 02:56:22;;;;;;;;;;;3.40;99.90;;;;;;4937212;28;20503;-87
2021/12/02 03:03:50;;;;;;;;;;;3.40;99.90;;;;;;4941975;28;20287;-87
2021/12/02 03:06:35;;;;;;;;;;;3.40;99.90;;;;;;4940918;28;19984;-87
2021/12/02 03:09:05;;;;;;;;;;;3.40;99.90;;;;;;4942733;28;20271;-86
2021/12/02 03:11:40;;;;;;;;;;;3.40;99.90;;;;;;4969767;28;19981;-88
2021/12/02 03:14:11;;;;;;;;;;;3.40;99.90;;;;;;4941020;28;19925;-87
2021/12/02 03:16:46;;;;;;;;;;;3.30;99.90;;;;;;4948769;28;19951;-89
2021/12/02 03:19:12;;;;;;;;;;;3.30;99.90;;;;;;4939857;28;19922;-88
2021/12/02 03:21:38;;;;;;;;;;;3.30;99.90;;;;;;4938973;28;20389;-87
2021/12/02 03:24:04;;;;;;;;;;;3.20;99.90;;;;;;4937308;28;19922;-88
2021/12/02 03:26:32;;;;;;;;;;;3.20;99.90;;;;;;4935717;28;19929;-87
2021/12/02 03:28:57;;;;;;;;;;;3.10;99.90;;;;;;4935564;28;19931;-89
2021/12/02 03:31:23;;;;;;;;;;;3.10;99.90;;;;;;4932786;28;19938;-89
2021/12/02 03:33:49;;;;;;;;;;;3.00;99.90;;;;;;4938918;29;19945;-88
2021/12/02 03:36:15;;;;;;;;;;;3.00;99.90;;;;;;4937336;28;19918;-89
2021/12/02 03:38:41;;;;;;;;;;;2.90;99.90;;;;;;4930850;29;20519;-88
2021/12/02 03:41:07;;;;;;;;;;;2.80;99.90;;;;;;4930820;29;19934;-86
2021/12/02 03:43:33;;;;;;;;;;;2.80;99.90;;;;;;4935980;29;19935;-87
2021/12/02 03:45:59;;;;;;;;;;;2.70;99.90;;;;;;4937683;29;20754;-88
2021/12/02 03:48:24;;;;;;;;;;;2.90;99.90;;;;;;4935101;29;19963;-85
2021/12/02 03:50:50;;;;;;;;;;;2.60;99.90;;;;;;4934345;29;19939;-87
2021/12/02 03:53:15;;;;;;;;;;;2.60;99.90;;;;;;4937614;29;19938;-86
2021/12/02 03:55:41;;;;;;;;;;;2.60;99.90;;;;;;4937057;29;19986;-86
2021/12/02 03:58:07;;;;;;;;;;;2.60;99.90;;;;;;4939877;29;19923;-85
2021/12/02 04:00:32;;;;;;;;;;;2.50;99.90;;;;;;4935478;29;19954;-86
2021/12/02 04:02:58;;;;;;;;;;;2.60;99.90;;;;;;4935423;29;20297;-86
2021/12/02 04:05:23;;;;;;;;;;;2.60;99.90;;;;;;4942631;29;19966;-86
2021/12/02 04:07:49;;;;;;;;;;;2.50;99.90;;;;;;4933659;29;20232;-86
2021/12/02 04:10:14;;;;;;;;;;;2.50;99.90;;;;;;4934507;29;19970;-85
2021/12/02 04:12:57;;;;;;;;;;;2.50;99.90;;;;;;4933063;29;19946;-85
2021/12/02 04:15:27;;;;;;;;;;;2.40;99.90;;;;;;4937713;29;19948;-86
2021/12/02 04:17:52;;;;;;;;;;;2.40;99.90;;;;;;4934957;29;20013;-88
2021/12/02 04:20:22;;;;;;;;;;;2.40;99.90;;;;;;4940038;29;19949;-88
2021/12/02 04:22:52;;;;;;;;;;;2.30;99.90;;;;;;4934022;29;21710;-90
2021/12/02 04:25:17;;;;;;;;;;;2.30;99.90;;;;;;4948976;29;20118;-89
2021/12/02 04:27:44;;;;;;;;;;;2.40;99.90;;;;;;4951901;29;20017;-88
2021/12/02 04:30:11;;;;;;;;;;;2.30;99.90;;;;;;4939889;29;19926;-87
2021/12/02 04:32:37;;;;;;;;;;;2.40;99.90;;;;;;4936270;29;20422;-87
2021/12/02 04:35:03;;;;;;;;;;;2.40;99.90;;;;;;4942556;29;20077;-88
2021/12/02 04:37:31;;;;;;;;;;;2.50;99.90;;;;;;4929857;29;19990;-87
2021/12/02 04:39:57;;;;;;;;;;;2.50;99.90;;;;;;4934053;29;19934;-87
2021/12/02 04:42:22;;;;;;;;;;;2.40;99.90;;;;;;4932825;28;19938;-86
2021/12/02 04:44:48;;;;;;;;;;;2.40;99.90;;;;;;4933614;29;19922;-88
2021/12/02 04:47:14;;;;;;;;;;;2.30;99.90;;;;;;4936593;29;19970;-85
2021/12/02 04:49:41;;;;;;;;;;;2.30;99.90;;;;;;4938541;29;19922;-88
2021/12/02 04:52:07;;;;;;;;;;;2.20;99.90;;;;;;4934630;29;19937;-88
2021/12/02 04:54:32;;;;;;;;;;;2.10;99.90;;;;;;4936263;29;19931;-87
2021/12/02 04:56:58;;;;;;;;;;;2.10;99.90;;;;;;4937768;29;20017;-88
2021/12/02 04:59:23;;;;;;;;;;;2.00;99.90;;;;;;4938198;29;20018;-88
2021/12/02 05:01:49;;;;;;;;;;;2.00;99.90;;;;;;4936424;29;19923;-87
2021/12/02 05:04:14;;;;;;;;;;;1.90;99.90;;;;;;4932680;29;20043;-86
2021/12/02 05:06:40;;;;;;;;;;;1.90;99.90;;;;;;4930217;28;20419;-86
2021/12/02 05:09:05;;;;;;;;;;;1.90;99.90;;;;;;4920236;29;19976;-86
2021/12/02 05:11:31;;;;;;;;;;;1.90;99.90;;;;;;4932215;29;19989;-86
2021/12/02 05:13:56;;;;;;;;;;;1.90;99.90;;;;;;4918638;29;19928;-85
2021/12/02 05:16:22;;;;;;;;;;;1.90;99.90;;;;;;4927944;29;20395;-86
2021/12/02 05:18:47;;;;;;;;;;;1.90;99.90;;;;;;4920119;29;19923;-86
2021/12/02 05:21:13;;;;;;;;;;;2.00;99.90;;;;;;4934471;29;19931;-87
2021/12/02 05:23:39;;;;;;;;;;;1.90;99.90;;;;;;4928176;29;19923;-86
2021/12/02 05:26:04;;;;;;;;;;;1.90;99.90;;;;;;4938633;29;19929;-86
2021/12/02 05:28:30;;;;;;;;;;;2.00;99.90;;;;;;4938839;28;20050;-87
2021/12/02 05:30:56;;;;;;;;;;;2.00;99.90;;;;;;4925636;28;20025;-86
2021/12/02 05:33:21;;;;;;;;;;;1.90;99.90;;;;;;4933693;29;19978;-85
2021/12/02 05:35:47;;;;;;;;;;;1.90;99.90;;;;;;4933324;28;20736;-85
2021/12/02 05:38:13;;;;;;;;;;;1.90;99.90;;;;;;4934426;29;19937;-85
2021/12/02 05:40:38;;;;;;;;;;;1.90;99.90;;;;;;4932125;29;20259;-85
2021/12/02 05:43:04;;;;;;;;;;;1.90;99.90;;;;;;4936851;28;20005;-85
2021/12/02 05:45:30;;;;;;;;;;;2.00;99.90;;;;;;4934868;29;19973;-86
2021/12/02 05:47:56;;;;;;;;;;;1.90;99.90;;;;;;4931009;29;19938;-85
2021/12/02 05:50:22;;;;;;;;;;;2.00;99.90;;;;;;4931019;29;19926;-86
2021/12/02 05:52:47;;;;;;;;;;;2.60;99.90;;;;;;4936726;29;19932;-85
2021/12/02 05:55:13;;;;;;;;;;;2.00;99.90;;;;;;4942326;28;20029;-86
2021/12/02 05:57:39;;;;;;;;;;;2.00;99.90;;;;;;4932296;29;19953;-85
2021/12/02 06:00:05;;;;;;;;;;;2.00;99.90;;;;;;4934640;29;19931;-85
2021/12/02 06:02:31;;;;;;;;;;;2.00;99.90;;;;;;4935276;29;20013;-85
2021/12/02 06:04:56;;;;;;;;;;;1.90;99.90;;;;;;4933743;29;20061;-85
2021/12/02 06:07:22;;;;;;;;;;;1.90;99.90;;;;;;4931559;29;20008;-84
2021/12/02 06:09:48;;;;;;;;;;;1.90;99.90;;;;;;4937965;28;19922;-85
2021/12/02 06:12:14;;;;;;;;;;;1.90;99.90;;;;;;4936146;29;19929;-85
2021/12/02 06:14:39;;;;;;;;;;;1.90;99.90;;;;;;4932076;29;20021;-84
2021/12/02 06:17:05;;;;;;;;;;;1.90;99.90;;;;;;4944260;29;20185;-84
2021/12/02 06:19:30;;;;;;;;;;;1.80;99.90;;;;;;4941802;29;19927;-84
2021/12/02 06:21:56;;;;;;;;;;;1.80;99.90;;;;;;4934703;29;20560;-86
2021/12/02 06:24:29;;;;;;;;;;;1.80;99.90;;;;;;4929677;29;19927;-85
2021/12/02 06:26:55;;;;;;;;;;;1.80;99.90;;;;;;4938425;29;19990;-85
2021/12/02 06:29:20;;;;;;;;;;;1.80;99.90;;;;;;4935079;28;19985;-86
2021/12/02 06:31:46;;;;;;;;;;;1.80;99.90;;;;;;4942002;28;19926;-84
2021/12/02 06:34:11;;;;;;;;;;;2.20;99.90;;;;;;4942527;28;19989;-85
2021/12/02 06:36:37;;;;;;;;;;;1.80;99.90;;;;;;4934577;28;19922;-85
2021/12/02 06:39:04;;;;;;;;;;;1.80;99.90;;;;;;4936420;28;19965;-85
2021/12/02 06:41:29;;;;;;;;;;;1.80;99.90;;;;;;4939783;28;19981;-86
2021/12/02 06:43:55;;;;;;;;;;;1.70;99.90;;;;;;4947996;28;19937;-85
2021/12/02 06:46:20;;;;;;;;;;;1.70;99.90;;;;;;4945641;28;20055;-85
2021/12/02 06:48:48;;;;;;;;;;;1.70;99.90;;;;;;4949716;28;20349;-86
2021/12/02 06:51:14;;;;;;;;;;;1.70;99.90;;;;;;4937301;28;20772;-85
2021/12/02 06:53:40;;;;;;;;;;;1.70;99.90;;;;;;4936366;28;19925;-85
2021/12/02 06:56:05;;;;;;;;;;;0.50;99.90;;;;;;4936261;28;19922;-85
2021/12/02 06:58:31;;;;;;;;;;;1.70;99.90;;;;;;4931884;28;19923;-85
2021/12/02 07:00:57;;;;;;;;;;;1.70;99.90;;;;;;4932663;28;19922;-85
2021/12/02 07:03:25;;;;;;;;;;;1.70;99.90;;;;;;4932469;28;19990;-85
2021/12/02 07:05:51;;;;;;;;;;;1.90;99.90;;;;;;4935449;28;19937;-85
2021/12/02 07:08:16;;;;;;;;;;;1.70;99.90;;;;;;4947396;28;19922;-84
2021/12/02 07:10:42;;;;;;;;;;;1.60;99.90;;;;;;4941625;28;19974;-84
2021/12/02 07:13:08;;;;;;;;;;;1.60;99.90;;;;;;4935512;28;19938;-85
2021/12/02 07:15:40;;;;;;;;;;;1.60;99.90;;;;;;4944095;28;19930;-86
2021/12/02 07:18:12;;;;;;;;;;;0.30;99.90;;;;;;4938095;28;19927;-85
2021/12/02 07:20:38;;;;;;;;;;;1.50;99.90;;;;;;4941021;28;20145;-84
2021/12/02 07:23:04;;;;;;;;;;;1.50;99.90;;;;;;4935095;28;20009;-85
2021/12/02 07:25:30;;;;;;;;;;;1.40;99.90;;;;;;4938733;28;20021;-85
2021/12/02 07:28:08;;;;;;;;;;;3.40;99.90;;;;;;4939575;28;19984;-85
2021/12/02 07:30:40;;;;;;;;;;;0.60;99.90;;;;;;4938367;28;19923;-84
2021/12/02 07:33:08;;;;;;;;;;;1.40;99.90;;;;;;4934747;28;20326;-86
2021/12/02 07:35:34;;;;;;;;;;;1.40;99.90;;;;;;4934077;29;19945;-86
2021/12/02 07:38:05;;;;;;;;;;;1.40;99.90;;;;;;4937467;28;19923;-86
2021/12/02 07:40:35;;;;;;;;;;;1.20;99.90;;;;;;4937427;29;19949;-84
2021/12/02 07:43:10;;;;;;;;;;;0.50;99.90;;;;;;4931209;29;19931;-84
2021/12/02 07:45:36;;;;;;;;;;;1.10;99.90;;;;;;4938623;29;20017;-85
2021/12/02 07:48:17;;;;;;;;;;;2.10;99.90;;;;;;4933031;29;21650;-87
2021/12/02 07:53:50;;;;;;;;;;;1.70;99.90;;;;;;4919221;29;19922;-84
2021/12/02 07:56:16;;;;;;;;;;;1.20;99.90;;;;;;4922083;29;20467;-84
2021/12/02 07:58:45;;;;;;;;;;;1.30;99.90;;;;;;4934017;29;19918;-85
2021/12/02 08:01:12;;;;;;;;;;;1.30;99.90;;;;;;4916196;29;19923;-86
2021/12/02 08:03:43;;;;;;;;;;;1.30;99.90;;;;;;4915501;29;19923;-86
2021/12/02 08:06:21;;;;;;;;;;;1.30;99.90;;;;;;4917960;29;19969;-85
2021/12/02 08:08:47;;;;;;;;;;;1.30;99.90;;;;;;4928031;29;19922;-85
2021/12/02 08:11:13;;;;;;;;;;;2.30;99.90;;;;;;4920679;29;20485;-86
2021/12/02 08:13:38;;;;;;;;;;;4.40;99.90;;;;;;4915357;29;19990;-85
2021/12/02 08:16:18;;;;;;;;;;;1.40;99.90;;;;;;4914115;29;20037;-87
2021/12/02 08:19:05;;;;;;;;;;;1.70;99.90;;;;;;4917476;29;20287;-86
2021/12/02 08:21:47;;;;;;;;;;;-0.40;99.90;;;;;;4928557;29;19928;-85
2021/12/02 08:24:13;;;;;;;;;;;1.50;99.90;;;;;;4914720;29;20260;-84
2021/12/02 08:26:54;;;;;;;;;;;1.70;99.90;;;;;;4929168;29;19965;-84
2021/12/02 08:29:45;;;;;;;;;;;2.00;99.90;;;;;;4927368;28;19923;-84
2021/12/02 08:32:11;;;;;;;;;;;-0.10;99.90;;;;;;4930009;29;20018;-86
2021/12/02 08:34:37;;;;;;;;;;;2.00;99.90;;;;;;4935000;29;20005;-85
2021/12/02 08:37:03;;;;;;;;;;;2.00;99.90;;;;;;4933960;29;20029;-85
2021/12/02 08:39:48;;;;;;;;;;;2.90;99.90;;;;;;4943164;28;19922;-86
2021/12/02 08:42:24;;;;;;;;;;;0.70;99.90;;;;;;4942117;28;20016;-88
2021/12/02 08:44:50;;;;;;;;;;;2.80;99.90;;;;;;4934706;29;19926;-89
2021/12/02 08:47:26;;;;;;;;;;;;;;;;;;;;;
2021/12/02 08:49:56;;;;;;;;;;;3.70;99.90;;;;;;4955952;28;19918;-96
2021/12/02 08:52:22;;;;;;;;;;;2.40;99.90;;;;;;4958062;28;19961;-93
2021/12/02 08:54:57;;;;;;;;;;;2.40;99.90;;;;;;4958030;28;19917;-93
2021/12/02 08:57:31;;;;;;;;;;;2.50;99.90;;;;;;4954406;28;19926;-88
2021/12/02 09:00:15;;;;;;;;;;;0.90;99.90;;;;;;4955715;28;19946;-90
2021/12/02 09:02:54;;;;;;;;;;;1.70;99.90;;;;;;4940840;28;20026;-92
2021/12/02 09:05:26;;;;;;;;;;;2.60;99.90;;;;;;4935879;29;19922;-89
2021/12/02 09:08:07;;;;;;;;;;;2.60;99.90;;;;;;4939184;29;19932;-88
2021/12/02 09:10:38;;;;;;;;;;;2.50;99.90;;;;;;4945991;28;19965;-89
2021/12/02 09:13:10;;;;;;;;;;;2.50;99.90;;;;;;4947423;29;19922;-90
2021/12/02 09:15:37;;;;;;;;;;;1.10;99.90;;;;;;4936206;29;19926;-89
2021/12/02 09:18:09;;;;;;;;;;;2.40;99.90;;;;;;4935900;29;19953;-89
2021/12/02 09:20:35;;;;;;;;;;;2.60;99.90;;;;;;4937590;29;19983;-89
2021/12/02 09:23:04;;;;;;;;;;;2.60;99.90;;;;;;4937826;29;19969;-89
2021/12/02 09:25:41;;;;;;;;;;;2.60;99.90;;;;;;4935698;29;19981;-89
2021/12/02 09:28:09;;;;;;;;;;;1.70;99.90;;;;;;4921696;29;20036;-89
2021/12/02 09:30:36;;;;;;;;;;;2.60;99.90;;;;;;4935850;28;19929;-91
2021/12/02 09:33:26;;;;;;;;;;;2.40;99.90;;;;;;4935342;29;20359;-90
2021/12/02 09:35:52;;;;;;;;;;;1.80;99.90;;;;;;4930815;29;19922;-89
2021/12/02 09:38:36;;;;;;;;;;;3.50;99.90;;;;;;4937514;28;19973;-90
2021/12/02 09:41:03;;;;;;;;;;;2.80;99.90;;;;;;4955160;28;19933;-89
2021/12/02 09:43:32;;;;;;;;;;;2.70;99.90;;;;;;4940428;29;19928;-89
2021/12/02 09:49:07;;;;;;;;;;;2.70;99.90;;;;;;4995611;23;19941;-91
2021/12/02 09:51:42;;;;;;;;;;;3.10;99.90;;;;;;4956447;28;19922;-87
2021/12/02 09:57:11;;;;;;;;;;;4.20;99.90;;;;;;4952912;28;19928;-87
2021/12/02 09:59:49;;;;;;;;;;;2.30;99.90;;;;;;4953407;28;19929;-86
2021/12/02 10:02:22;;;;;;;;;;;2.40;99.90;;;;;;4954949;28;19922;-84
2021/12/02 10:05:04;;;;;;;;;;;1.90;99.90;;;;;;4972805;28;19939;-85
2021/12/02 10:07:48;;;;;;;;;;;1.80;99.90;;;;;;4962513;28;19921;-87
2021/12/02 10:13:58;;;;;;;;;;;2.60;99.90;;;;;;4959076;28;20038;-86
2021/12/02 10:17:01;;;;;;;;;;;1.60;99.90;;;;;;4944852;28;19917;-85
2021/12/02 10:29:21;;;;;;;;;;;0.10;99.90;;;;;;4933276;28;19926;-85
2021/12/02 10:34:45;;;;;;;;;;;1.90;99.90;;;;;;4933334;28;19926;-87
2021/12/02 10:37:17;;;;;;;;;;;2.80;99.90;;;;;;4942266;28;19926;-86
2021/12/02 10:40:01;;;;;;;;;;;3.40;99.90;;;;;;4933598;29;19969;-87
2021/12/02 10:42:27;;;;;;;;;;;3.20;99.90;;;;;;4931492;29;20016;-90
2021/12/02 10:44:54;;;;;;;;;;;3.30;99.90;;;;;;4936960;28;19922;-86
2021/12/02 10:47:27;;;;;;;;;;;3.10;99.90;;;;;;4942712;28;19929;-87
2021/12/02 10:50:11;;;;;;;;;;;1.50;99.90;;;;;;4943722;28;20274;-88
2021/12/02 10:52:37;;;;;;;;;;;2.80;99.90;;;;;;4942171;28;20316;-88
2021/12/02 10:55:22;;;;;;;;;;;3.70;99.90;;;;;;4943757;29;20021;-90
2021/12/02 10:57:58;;;;;;;;;;;2.60;99.90;;;;;;4942463;29;19927;-88
2021/12/02 11:00:42;;;;;;;;;;;2.50;99.90;;;;;;4936758;29;19929;-87
2021/12/02 11:03:09;;;;;;;;;;;0.40;99.90;;;;;;4942669;28;20870;-87
2021/12/02 11:05:36;;;;;;;;;;;1.90;99.90;;;;;;4940405;28;19969;-91
2021/12/02 11:08:18;;;;;;;;;;;4.00;99.90;;;;;;4936070;29;20244;-86
2021/12/02 11:10:53;;;;;;;;;;;0.90;99.90;;;;;;4926254;29;20318;-84
2021/12/02 11:13:33;;;;;;;;;;;3.40;99.90;;;;;;4933508;28;20599;-92
2021/12/02 11:15:59;;;;;;;;;;;1.80;99.90;;;;;;4926001;29;20022;-88
2021/12/02 11:18:38;;;;;;;;;;;1.60;99.90;;;;;;4932890;29;20420;-85
2021/12/02 11:21:03;;;;;;;;;;;1.70;99.90;;;;;;4940404;28;19926;-89
2021/12/02 11:23:47;;;;;;;;;;;1.40;99.90;;;;;;4950065;28;19969;-93
2021/12/02 11:26:35;;;;;;;;;;;1.10;99.90;;;;;;4946044;28;20332;-91
2021/12/02 11:29:19;;;;;;;;;;;2.20;99.90;;;;;;4947873;29;19922;-91
2021/12/02 11:31:47;;;;;;;;;;;0.30;99.90;;;;;;4956424;28;20378;-91
2021/12/02 11:34:29;;;;;;;;;;;1.70;99.90;;;;;;4957436;28;19969;-93
2021/12/02 11:37:16;;;;;;;;;;;1.80;99.90;;;;;;4935814;29;19923;-93
2021/12/02 11:40:04;;;;;;;;;;;1.90;99.90;;;;;;4942623;29;19922;-93
2021/12/02 11:42:39;;;;;;;;;;;0.90;99.90;;;;;;4944471;28;19938;-93
2021/12/02 11:45:28;;;;;;;;;;;0.60;99.90;;;;;;4946254;28;19986;-95
2021/12/02 11:51:35;;;;;;;;;;;1.80;99.90;;;;;;4938031;29;19923;-95
2021/12/02 11:54:03;;;;;;;;;;;2.20;99.90;;;;;;4959487;28;19929;-95
2021/12/02 11:56:34;;;;;;;;;;;2.80;99.90;;;;;;5046119;23;20389;-95
2021/12/02 12:02:10;;;;;;;;;;;1.60;99.90;;;;;;4970160;28;19922;-93
2021/12/02 12:07:58;;;;;;;;;;;2.60;99.90;;;;;;4976843;28;20023;-95
2021/12/02 12:10:58;;;;;;;;;;;0.00;99.90;;;;;;4960027;28;19930;-89
2021/12/02 12:16:51;;;;;;;;;;;2.10;99.90;;;;;;4938637;28;19926;-89
2021/12/02 12:19:37;;;;;;;;;;;2.00;99.90;;;;;;4956944;28;19922;-88
2021/12/02 12:22:21;;;;;;;;;;;2.00;99.90;;;;;;4952569;28;19925;-89
2021/12/02 12:24:55;;;;;;;;;;;1.90;99.90;;;;;;4954480;28;19918;-85
2021/12/02 12:27:37;;;;;;;;;;;1.70;99.90;;;;;;4952238;28;19972;-85
2021/12/02 12:30:35;;;;;;;;;;;1.50;99.90;;;;;;4965096;28;19926;-84
2021/12/02 12:33:04;;;;;;;;;;;1.90;99.90;;;;;;4935363;28;19922;-86
2021/12/02 12:42:44;;;;;;;;;;;2.50;99.90;;;;;;4906247;29;19989;-87
2021/12/02 12:45:30;;;;;;;;;;;0.60;99.90;;;;;;4899456;29;19930;-87
2021/12/02 12:48:14;;;;;;;;;;;1.40;99.90;;;;;;4944812;28;19922;-87
2021/12/02 12:50:41;;;;;;;;;;;1.80;99.90;;;;;;4940862;28;19963;-85
2021/12/02 12:56:54;;;;;;;;;;;2.50;99.90;;;;;;4962875;28;19933;-87
2021/12/02 12:59:26;;;;;;;;;;;1.80;99.90;;;;;;4943386;28;20287;-86
2021/12/02 13:01:59;;;;;;;;;;;2.30;99.90;;;;;;4953961;28;20005;-88
2021/12/02 13:04:48;;;;;;;;;;;1.90;99.90;;;;;;4957025;28;20326;-87
2021/12/02 13:07:16;;;;;;;;;;;2.00;99.90;;;;;;4972801;28;19922;-88
2021/12/02 13:10:02;;;;;;;;;;;2.00;99.90;;;;;;4956929;28;20317;-87
2021/12/02 13:12:52;;;;;;;;;;;2.00;99.90;;;;;;4953093;28;19922;-86
2021/12/02 13:15:19;;;;;;;;;;;2.00;99.90;;;;;;4954339;28;19926;-86
2021/12/02 13:17:45;;;;;;;;;;;2.80;99.90;;;;;;4951979;28;19918;-87
2021/12/02 13:20:14;;;;;;;;;;;2.10;99.90;;;;;;4957705;28;19922;-90
2021/12/02 13:22:39;;;;;;;;;;;2.20;99.90;;;;;;4955577;28;19933;-87
2021/12/02 13:25:27;;;;;;;;;;;2.30;99.90;;;;;;4956069;28;19922;-88
2021/12/02 13:28:27;;;;;;;;;;;2.30;99.90;;;;;;4955992;28;19933;-93
2021/12/02 13:31:20;;;;;;;;;;;2.40;99.90;;;;;;4955042;28;19926;-87
2021/12/02 13:33:51;;;;;;;;;;;3.40;99.90;;;;;;4968018;28;19922;-88
2021/12/02 13:36:36;;;;;;;;;;;2.60;99.90;;;;;;4971686;28;19989;-88
2021/12/02 13:39:26;;;;;;;;;;;2.50;99.90;;;;;;4954106;29;19929;-88
2021/12/02 13:42:08;;;;;;;;;;;2.40;99.90;;;;;;4959699;28;19932;-87
2021/12/02 13:44:44;;;;;;;;;;;3.50;99.90;;;;;;4958907;28;19953;-87
2021/12/02 13:47:16;;;;;;;;;;;2.60;99.90;;;;;;4978988;28;19973;-88
2021/12/02 13:49:50;;;;;;;;;;;2.40;99.90;;;;;;4972704;28;19982;-88
2021/12/02 13:55:10;;;;;;;;;;;2.40;99.90;;;;;;4942747;28;20393;-88
2021/12/02 13:57:37;;;;;;;;;;;2.40;99.90;;;;;;4973250;28;19933;-88
2021/12/02 14:00:09;;;;;;;;;;;2.40;99.90;;;;;;4973013;28;19929;-88
2021/12/02 14:02:35;;;;;;;;;;;2.30;99.90;;;;;;4960224;28;19933;-90
2021/12/02 14:05:20;;;;;;;;;;;2.40;99.90;;;;;;4972135;23;19946;-88
2021/12/02 14:07:46;;;;;;;;;;;1.40;99.90;;;;;;4969317;28;19948;-88
2021/12/02 14:10:37;;;;;;;;;;;2.70;99.90;;;;;;4971445;28;19925;-88
2021/12/02 14:13:11;;;;;;;;;;;2.20;99.90;;;;;;4936147;28;19930;-89
2021/12/02 14:15:45;;;;;;;;;;;2.60;99.90;;;;;;4955625;28;19922;-88
2021/12/02 14:18:19;;;;;;;;;;;2.20;99.90;;;;;;4958045;28;19922;-88
2021/12/02 14:21:10;;;;;;;;;;;0.50;99.90;;;;;;4956686;28;19968;-88
2021/12/02 14:24:05;;;;;;;;;;;1.90;99.90;;;;;;4960085;29;20014;-88
2021/12/02 14:26:36;;;;;;;;;;;2.00;99.90;;;;;;4938676;29;19922;-89
2021/12/02 14:32:39;;;;;;;;;;;2.90;99.90;;;;;;4955503;29;19985;-89
2021/12/02 14:35:19;;;;;;;;;;;2.00;99.90;;;;;;4990494;23;19929;-89
2021/12/02 14:37:48;;;;;;;;;;;2.00;99.90;;;;;;4959498;28;20363;-89
2021/12/02 14:43:25;;;;;;;;;;;1.90;99.90;;;;;;4938647;29;20072;-89
2021/12/02 14:52:50;;;;;;;;;;;0.00;99.90;;;;;;4976598;28;19917;-89
2021/12/02 14:57:54;;;;;;;;;;;1.90;99.90;;;;;;5103751;23;19922;-89
2021/12/02 15:00:21;;;;;;;;;;;1.80;99.90;;;;;;4958680;28;20072;-89
2021/12/02 15:02:47;;;;;;;;;;;1.80;99.90;;;;;;4957296;28;19999;-90
2021/12/02 15:05:24;;;;;;;;;;;1.70;99.90;;;;;;4958642;28;19928;-89
2021/12/02 15:08:14;;;;;;;;;;;1.70;99.90;;;;;;4962305;28;19945;-89
2021/12/02 15:10:40;;;;;;;;;;;0.90;99.90;;;;;;4959261;28;20010;-90
2021/12/02 15:13:08;;;;;;;;;;;1.50;99.90;;;;;;4958650;28;19930;-90
2021/12/02 15:16:13;;;;;;;;;;;1.50;99.90;;;;;;4942328;28;19929;-89
2021/12/02 15:18:42;;;;;;;;;;;1.70;99.90;;;;;;4922102;29;19967;-89
2021/12/02 15:21:09;;;;;;;;;;;1.40;99.90;;;;;;4947275;28;19949;-89
2021/12/02 15:23:47;;;;;;;;;;;4.30;99.90;;;;;;4958461;28;19922;-89
2021/12/02 15:26:13;;;;;;;;;;;1.30;99.90;;;;;;4957185;28;19921;-88
2021/12/02 15:28:44;;;;;;;;;;;1.20;99.90;;;;;;4956427;28;19945;-89
2021/12/02 15:37:27;;;;;;;;;;;0.40;99.90;;;;;;4993110;28;19936;-90
2021/12/02 15:39:52;;;;;;;;;;;1.00;99.90;;;;;;4976672;28;19922;-88
2021/12/02 15:42:18;;;;;;;;;;;1.10;99.90;;;;;;4957916;28;19922;-87
2021/12/02 15:44:44;;;;;;;;;;;1.10;99.90;;;;;;4956339;28;19925;-88
2021/12/02 15:47:22;;;;;;;;;;;1.10;99.90;;;;;;4957217;28;19925;-87
2021/12/02 15:49:59;;;;;;;;;;;1.90;99.90;;;;;;4951028;28;20335;-89
2021/12/02 15:52:46;;;;;;;;;;;1.00;99.90;;;;;;4929903;29;19922;-89
2021/12/02 15:55:24;;;;;;;;;;;1.10;99.90;;;;;;4937957;29;20373;-90
2021/12/02 15:57:50;;;;;;;;;;;2.40;99.90;;;;;;4953630;28;20275;-90
2021/12/02 16:00:32;;;;;;;;;;;0.90;99.90;;;;;;4956866;28;20311;-89
2021/12/02 16:03:10;;;;;;;;;;;1.10;99.90;;;;;;4956291;28;20274;-90
2021/12/02 16:06:03;;;;;;;;;;;1.00;99.90;;;;;;4957704;28;19930;-89
2021/12/02 16:09:15;;;;;;;;;;;0.70;99.90;;;;;;4956401;28;19922;-90
2021/12/02 16:14:51;;;;;;;;;;;2.30;99.90;;;;;;4969690;28;19980;-90
2021/12/02 16:17:36;;;;;;;;;;;0.90;99.90;;;;;;4966298;28;19926;-87
2021/12/02 16:20:10;;;;;;;;;;;1.90;99.90;;;;;;4954937;28;19922;-87
2021/12/02 16:22:36;;;;;;;;;;;0.90;99.90;;;;;;4950854;28;19926;-88
2021/12/02 16:25:15;;;;;;;;;;;0.90;99.90;;;;;;4964832;28;20355;-86